Time;durP1;ratioP1;P1;durP2;ratioP2;P2;SDS_P1;SDS_P2;PMS_P1;PMS_P2;Temp;Humidity;BMP_temperature;BMP_pressure;BME280_temperature;BME280_humidity;BME280_pressure;Samples;Min_cycle;Max_cycle;Signal;HPM_P1;HPM_P2
2024/01/10 00:00:07;;;;;;;24.35;11.38;;;1.30;65.00;;;;;;5039515;28;20175;-63
2024/01/10 00:02:36;;;;;;;46.05;14.88;;;1.20;64.80;;;;;;5051652;28;20080;-63
2024/01/10 00:05:06;;;;;;;57.15;16.58;;;1.20;65.10;;;;;;5051958;28;20049;-64
2024/01/10 00:07:36;;;;;;;46.30;14.32;;;1.20;65.00;;;;;;5047794;28;20086;-63
2024/01/10 00:10:09;;;;;;;34.35;13.50;;;1.20;65.20;;;;;;5045701;28;20573;-63
2024/01/10 00:12:38;;;;;;;50.85;15.13;;;1.30;65.40;;;;;;5052606;28;20064;-63
2024/01/10 00:15:07;;;;;;;40.67;15.57;;;1.30;65.20;;;;;;5044922;28;20076;-63
2024/01/10 00:17:40;;;;;;;55.08;18.42;;;1.30;65.30;;;;;;5055509;28;20075;-63
2024/01/10 00:20:11;;;;;;;48.90;15.68;;;1.30;65.30;;;;;;5039339;28;20523;-62
2024/01/10 00:22:39;;;;;;;44.58;15.00;;;1.30;65.40;;;;;;5042601;28;20184;-63
2024/01/10 00:25:08;;;;;;;47.17;17.17;;;1.40;65.60;;;;;;5044776;28;20105;-64
2024/01/10 00:27:37;;;;;;;60.10;18.08;;;1.40;65.70;;;;;;5051367;28;20728;-64
2024/01/10 00:30:07;;;;;;;44.55;15.43;;;1.50;65.80;;;;;;5035994;28;20536;-65
2024/01/10 00:32:36;;;;;;;36.53;14.25;;;1.50;65.60;;;;;;5038616;28;20061;-62
2024/01/10 00:35:05;;;;;;;69.05;18.48;;;1.60;65.50;;;;;;5039560;28;20063;-63
2024/01/10 00:37:35;;;;;;;42.05;14.35;;;1.60;65.60;;;;;;5048318;28;20060;-62
2024/01/10 00:40:05;;;;;;;50.22;17.08;;;1.60;65.50;;;;;;5040337;28;20227;-63
2024/01/10 00:42:33;;;;;;;46.83;17.02;;;1.60;65.50;;;;;;5050488;28;20496;-62
2024/01/10 00:45:02;;;;;;;51.60;14.20;;;1.70;65.50;;;;;;5044685;28;20398;-64
2024/01/10 00:47:30;;;;;;;33.35;13.23;;;1.70;65.50;;;;;;5054924;28;20063;-63
2024/01/10 00:50:00;;;;;;;43.05;14.98;;;1.60;65.20;;;;;;5051910;28;20080;-63
2024/01/10 00:52:35;;;;;;;70.72;15.52;;;1.60;65.40;;;;;;5039427;28;20053;-63
2024/01/10 00:55:07;;;;;;;32.08;13.10;;;1.60;65.20;;;;;;5050315;28;20044;-64
2024/01/10 00:57:42;;;;;;;43.35;14.38;;;1.50;65.00;;;;;;5051552;28;20044;-63
2024/01/10 01:00:14;;;;;;;;;;;1.40;65.20;;;;;;5043391;28;20044;-63
2024/01/10 01:02:46;;;;;;;38.25;14.32;;;1.50;65.50;;;;;;5050397;28;19924;-62
2024/01/10 01:05:18;;;;;;;34.35;13.60;;;1.40;65.50;;;;;;5052547;28;20088;-64
2024/01/10 01:07:50;;;;;;;35.13;14.57;;;1.50;65.70;;;;;;5052861;28;20053;-63
2024/01/10 01:10:21;;;;;;;27.10;12.68;;;1.50;65.50;;;;;;5038113;28;20052;-63
2024/01/10 01:12:52;;;;;;;51.92;16.33;;;1.50;65.60;;;;;;5052996;28;20065;-62
2024/01/10 01:15:31;;;;;;;32.95;14.82;;;1.40;65.50;;;;;;5048138;28;20491;-64
2024/01/10 01:18:03;;;;;;;38.92;13.52;;;1.40;65.50;;;;;;5048853;28;20049;-64
2024/01/10 01:20:37;;;;;;;78.95;17.75;;;1.40;65.80;;;;;;5062842;28;20045;-63
2024/01/10 01:23:09;;;;;;;42.33;15.63;;;1.50;66.00;;;;;;5051753;28;20242;-64
2024/01/10 01:25:39;;;;;;;45.05;14.35;;;1.60;66.10;;;;;;5055361;28;20056;-62
2024/01/10 01:28:08;;;;;;;47.95;17.50;;;1.70;66.10;;;;;;5043089;28;20056;-63
2024/01/10 01:30:37;;;;;;;38.28;13.35;;;1.70;66.00;;;;;;5050035;28;20059;-62
2024/01/10 01:33:06;;;;;;;26.77;10.85;;;1.80;65.90;;;;;;5048033;28;20076;-62
2024/01/10 01:35:36;;;;;;;37.38;12.98;;;1.80;65.80;;;;;;5051049;28;20072;-64
2024/01/10 01:38:09;;;;;;;41.33;14.65;;;1.80;65.50;;;;;;5042314;28;20502;-65
2024/01/10 01:40:40;;;;;;;28.65;11.90;;;1.70;65.50;;;;;;5047621;28;20108;-65
2024/01/10 01:43:24;;;;;;;58.30;17.77;;;1.70;65.30;;;;;;5045980;28;20137;-62
2024/01/10 01:45:56;;;;;;;39.20;19.95;;;1.60;65.40;;;;;;5050814;28;20061;-63
2024/01/10 01:48:27;;;;;;;43.33;14.55;;;1.60;65.60;;;;;;5040644;28;20052;-63
2024/01/10 01:51:00;;;;;;;46.60;15.00;;;1.70;66.00;;;;;;5053990;28;20540;-63
2024/01/10 01:53:32;;;;;;;41.70;15.85;;;1.70;66.00;;;;;;5050759;28;20110;-62
2024/01/10 01:56:07;;;;;;;29.83;14.48;;;1.90;66.10;;;;;;5041505;28;20450;-62
2024/01/10 01:58:37;;;;;;;43.38;17.92;;;1.90;65.90;;;;;;5056145;28;20127;-64
2024/01/10 02:01:06;;;;;;;62.75;16.23;;;1.90;65.80;;;;;;5046276;28;20665;-63
2024/01/10 02:03:35;;;;;;;28.83;13.88;;;2.00;65.80;;;;;;5049327;28;20128;-63
2024/01/10 02:06:04;;;;;;;51.50;14.70;;;2.00;65.70;;;;;;5049451;28;20371;-62
2024/01/10 02:08:35;;;;;;;38.03;14.20;;;1.90;65.50;;;;;;5045167;28;20777;-63
2024/01/10 02:11:04;;;;;;;81.85;20.08;;;1.90;65.60;;;;;;5046637;28;20075;-63
2024/01/10 02:13:34;;;;;;;33.63;14.75;;;1.90;65.70;;;;;;5048979;28;20060;-62
2024/01/10 02:16:04;;;;;;;53.47;19.40;;;1.90;65.60;;;;;;5051281;28;20053;-62
2024/01/10 02:18:34;;;;;;;54.60;16.95;;;1.90;65.70;;;;;;5048037;28;20143;-63
2024/01/10 02:21:03;;;;;;;42.22;14.25;;;1.90;65.70;;;;;;5048093;28;20056;-63
2024/01/10 02:23:33;;;;;;;50.05;18.73;;;2.00;65.90;;;;;;5050410;28;20064;-66
2024/01/10 02:26:03;;;;;;;32.63;15.10;;;2.00;65.90;;;;;;5039828;28;20502;-63
2024/01/10 02:28:32;;;;;;;44.30;15.80;;;2.10;65.90;;;;;;5051883;28;20053;-63
2024/01/10 02:31:01;;;;;;;39.22;13.07;;;2.20;65.80;;;;;;5040627;28;20530;-62
2024/01/10 02:33:30;;;;;;;49.90;16.70;;;2.20;65.80;;;;;;5051951;28;20044;-62
2024/01/10 02:35:58;;;;;;;37.78;13.85;;;2.30;65.70;;;;;;5050818;28;20058;-63
2024/01/10 02:38:28;;;;;;;62.17;18.40;;;2.20;65.50;;;;;;5047554;28;20090;-65
2024/01/10 02:40:56;;;;;;;60.00;16.13;;;2.20;65.20;;;;;;5046196;28;20132;-63
2024/01/10 02:43:29;;;;;;;40.08;15.73;;;2.10;65.00;;;;;;5049231;28;20388;-63
2024/01/10 02:45:58;;;;;;;38.95;13.10;;;1.90;64.90;;;;;;5051097;28;20468;-63
2024/01/10 02:48:27;;;;;;;38.25;14.77;;;1.80;65.00;;;;;;5046765;28;20128;-63
2024/01/10 02:50:56;;;;;;;44.47;14.23;;;1.80;65.30;;;;;;5052022;28;20056;-62
2024/01/10 02:53:24;;;;;;;55.90;19.02;;;1.70;65.30;;;;;;5042311;28;20061;-63
2024/01/10 02:55:53;;;;;;;33.45;16.15;;;1.60;65.20;;;;;;5047869;28;20076;-63
2024/01/10 02:58:22;;;;;;;41.10;15.20;;;1.60;65.40;;;;;;5044846;28;20040;-63
2024/01/10 03:00:52;;;;;;;37.85;16.10;;;1.60;65.70;;;;;;5046319;28;20419;-63
2024/01/10 03:03:20;;;;;;;62.00;17.88;;;1.50;65.60;;;;;;5048747;28;20597;-63
2024/01/10 03:05:49;;;;;;;46.95;21.08;;;1.50;65.70;;;;;;5050356;28;20060;-63
2024/01/10 03:08:18;;;;;;;41.88;15.68;;;1.60;66.00;;;;;;5041974;28;20502;-63
2024/01/10 03:10:46;;;;;;;52.08;16.40;;;1.70;66.20;;;;;;5046679;28;20504;-62
2024/01/10 03:13:15;;;;;;;68.97;19.20;;;1.70;65.80;;;;;;5046225;28;20040;-63
2024/01/10 03:15:43;;;;;;;38.50;17.38;;;1.70;65.90;;;;;;5046409;28;20140;-64
2024/01/10 03:18:13;;;;;;;39.78;15.43;;;1.80;65.90;;;;;;5035250;28;20395;-63
2024/01/10 03:20:42;;;;;;;75.53;15.95;;;1.70;65.70;;;;;;5050406;28;20131;-63
2024/01/10 03:23:10;;;;;;;52.47;17.00;;;1.70;65.50;;;;;;5046874;28;20506;-62
2024/01/10 03:25:39;;;;;;;54.65;18.70;;;1.70;65.70;;;;;;5051195;28;20060;-63
2024/01/10 03:28:08;;;;;;;27.58;11.60;;;1.80;66.00;;;;;;5039512;28;20909;-63
2024/01/10 03:30:37;;;;;;;66.35;16.80;;;1.80;65.90;;;;;;5045446;28;20060;-63
2024/01/10 03:33:05;;;;;;;49.55;13.75;;;1.80;65.90;;;;;;5047966;28;20087;-63
2024/01/10 03:35:35;;;;;;;66.57;19.77;;;1.90;66.00;;;;;;5042920;28;20503;-64
2024/01/10 03:38:03;;;;;;;52.25;17.92;;;1.90;66.00;;;;;;5043363;28;20053;-62
2024/01/10 03:40:32;;;;;;;52.70;15.30;;;2.00;66.20;;;;;;5036882;28;20090;-63
2024/01/10 03:43:00;;;;;;;45.63;19.02;;;2.00;66.10;;;;;;5051417;28;20059;-63
2024/01/10 03:45:29;;;;;;;70.90;17.42;;;2.10;65.90;;;;;;5049818;28;20503;-62
2024/01/10 03:47:58;;;;;;;51.75;17.63;;;2.00;65.50;;;;;;5046519;28;20566;-64
2024/01/10 03:50:26;;;;;;;31.50;17.08;;;2.00;65.40;;;;;;5039137;28;20105;-63
2024/01/10 03:52:56;;;;;;;52.20;17.02;;;1.90;65.50;;;;;;5045640;28;20072;-63
2024/01/10 03:55:24;;;;;;;56.05;18.83;;;2.00;65.70;;;;;;5047548;28;20114;-62
2024/01/10 03:57:53;;;;;;;52.60;14.70;;;2.00;65.60;;;;;;5052271;28;20057;-63
2024/01/10 04:00:21;;;;;;;47.63;18.50;;;2.00;65.70;;;;;;5033740;28;20056;-62
2024/01/10 04:02:49;;;;;;;59.95;20.02;;;1.90;65.50;;;;;;5047464;28;20064;-63
2024/01/10 04:05:20;;;;;;;49.78;17.60;;;1.90;65.50;;;;;;5043326;28;20389;-63
2024/01/10 04:07:49;;;;;;;64.15;17.00;;;1.90;65.80;;;;;;5052400;28;20127;-63
2024/01/10 04:10:19;;;;;;;61.45;18.75;;;2.00;66.00;;;;;;5041856;28;20122;-62
2024/01/10 04:12:47;;;;;;;52.20;15.45;;;2.00;66.00;;;;;;5047015;28;20084;-63
2024/01/10 04:15:15;;;;;;;61.80;18.90;;;2.10;66.00;;;;;;5051540;28;20434;-62
2024/01/10 04:17:44;;;;;;;70.93;17.65;;;2.10;66.00;;;;;;5046156;28;20040;-61
2024/01/10 04:20:13;;;;;;;46.55;18.83;;;2.20;65.90;;;;;;5054245;28;20064;-63
2024/01/10 04:22:41;;;;;;;44.03;16.58;;;2.20;65.70;;;;;;5050681;28;20511;-63
2024/01/10 04:25:10;;;;;;;44.35;15.52;;;2.20;65.80;;;;;;5048679;28;20057;-63
2024/01/10 04:27:39;;;;;;;56.85;16.67;;;2.30;65.90;;;;;;5048488;28;20080;-63
2024/01/10 04:30:09;;;;;;;43.65;17.25;;;2.30;66.60;;;;;;5043136;28;20111;-62
2024/01/10 04:32:37;;;;;;;79.90;21.13;;;2.30;65.80;;;;;;5052775;28;20071;-62
2024/01/10 04:35:06;;;;;;;54.90;16.50;;;2.30;65.80;;;;;;5051922;28;21369;-62
2024/01/10 04:37:35;;;;;;;65.05;19.20;;;2.30;65.80;;;;;;5053836;28;20135;-64
2024/01/10 04:40:03;;;;;;;49.97;19.38;;;2.30;65.70;;;;;;5054484;28;20140;-63
2024/01/10 04:42:35;;;;;;;57.72;19.95;;;2.30;65.70;;;;;;5051256;28;20052;-63
2024/01/10 04:45:07;;;;;;;46.78;16.65;;;2.30;65.60;;;;;;5051088;28;20494;-63
2024/01/10 04:47:35;;;;;;;59.00;17.60;;;2.30;65.60;;;;;;5056291;28;20052;-62
2024/01/10 04:50:04;;;;;;;56.88;21.88;;;2.30;65.70;;;;;;5050484;28;20157;-63
2024/01/10 04:52:37;;;;;;;51.53;18.10;;;2.30;65.70;;;;;;5042724;28;20521;-65
2024/01/10 04:55:07;;;;;;;61.33;22.83;;;2.30;65.70;;;;;;5054035;28;20504;-62
2024/01/10 04:57:36;;;;;;;47.08;17.73;;;2.20;65.70;;;;;;5055380;28;20051;-63
2024/01/10 05:00:10;;;;;;;60.95;21.45;;;2.20;65.70;;;;;;5049055;28;20102;-62
2024/01/10 05:02:38;;;;;;;59.58;17.80;;;2.20;65.70;;;;;;5043229;28;20513;-62
2024/01/10 05:05:08;;;;;;;78.15;19.38;;;2.30;65.90;;;;;;5051153;28;20056;-63
2024/01/10 05:07:36;;;;;;;66.70;20.67;;;2.30;65.80;;;;;;5052243;28;20084;-64
2024/01/10 05:10:06;;;;;;;54.70;17.20;;;2.30;65.80;;;;;;5053636;28;20057;-62
2024/01/10 05:12:34;;;;;;;67.63;21.13;;;2.30;65.80;;;;;;5048192;28;20118;-62
2024/01/10 05:15:03;;;;;;;61.53;19.17;;;2.30;65.80;;;;;;5047601;28;20148;-63
2024/01/10 05:17:33;;;;;;;59.33;17.48;;;2.30;66.50;;;;;;5043453;28;20099;-63
2024/01/10 05:20:02;;;;;;;54.95;17.67;;;2.30;65.80;;;;;;5050080;28;20437;-62
2024/01/10 05:22:31;;;;;;;52.90;19.63;;;2.30;65.80;;;;;;5036774;28;20682;-63
2024/01/10 05:24:59;;;;;;;68.93;18.60;;;2.30;65.90;;;;;;5042966;28;20617;-62
2024/01/10 05:27:28;;;;;;;88.10;22.05;;;2.40;65.80;;;;;;5040528;28;20131;-63
2024/01/10 05:29:56;;;;;;;38.63;13.85;;;2.40;65.80;;;;;;5037979;28;20049;-63
2024/01/10 05:32:24;;;;;;;76.97;20.65;;;2.30;65.60;;;;;;5039456;28;20052;-62
2024/01/10 05:34:55;;;;;;;54.88;15.70;;;2.30;65.60;;;;;;5038908;28;20048;-65
2024/01/10 05:37:23;;;;;;;60.45;18.83;;;2.30;65.80;;;;;;5044030;28;20094;-64
2024/01/10 05:39:51;;;;;;;45.67;18.45;;;2.30;65.80;;;;;;5043223;28;20049;-65
2024/01/10 05:42:20;;;;;;;47.60;17.65;;;2.30;65.90;;;;;;5036224;28;20053;-64
2024/01/10 05:44:48;;;;;;;51.78;19.25;;;2.40;65.90;;;;;;5043585;28;20057;-66
2024/01/10 05:47:17;;;;;;;73.70;21.85;;;2.40;65.90;;;;;;5034793;28;20060;-66
2024/01/10 05:49:45;;;;;;;61.22;16.15;;;2.30;65.70;;;;;;5044647;28;20505;-64
2024/01/10 05:52:15;;;;;;;40.38;14.98;;;2.40;65.80;;;;;;5039003;28;20117;-66
2024/01/10 05:54:43;;;;;;;54.83;18.80;;;2.40;65.90;;;;;;5041382;28;20237;-65
2024/01/10 05:57:12;;;;;;;50.60;18.50;;;2.40;65.80;;;;;;5045159;28;20067;-65
2024/01/10 05:59:40;;;;;;;59.90;18.73;;;2.40;65.70;;;;;;5040314;28;20052;-66
2024/01/10 06:02:08;;;;;;;62.78;20.08;;;2.40;65.70;;;;;;5037121;28;20044;-66
2024/01/10 06:04:38;;;;;;;67.18;17.35;;;2.40;65.80;;;;;;5035459;28;20064;-65
2024/01/10 06:07:06;;;;;;;49.55;18.67;;;2.40;65.80;;;;;;5039108;28;20110;-64
2024/01/10 06:09:36;;;;;;;56.58;17.13;;;2.40;65.80;;;;;;5042583;28;20056;-64
2024/01/10 06:12:05;;;;;;;58.65;19.52;;;2.40;65.80;;;;;;5045114;28;20417;-65
2024/01/10 06:14:33;;;;;;;60.17;18.20;;;2.40;65.80;;;;;;5040269;28;20169;-65
2024/01/10 06:17:03;;;;;;;41.40;16.92;;;2.40;65.80;;;;;;5058910;28;20191;-67
2024/01/10 06:19:32;;;;;;;60.85;18.83;;;2.40;65.80;;;;;;5033581;28;20053;-66
2024/01/10 06:22:01;;;;;;;65.45;20.10;;;2.40;65.70;;;;;;5044077;28;20539;-64
2024/01/10 06:24:30;;;;;;;71.13;20.83;;;2.40;65.80;;;;;;5032414;28;20041;-66
2024/01/10 06:26:59;;;;;;;56.10;17.50;;;2.40;65.80;;;;;;5040981;28;20136;-65
2024/01/10 06:29:28;;;;;;;53.72;21.63;;;2.40;65.80;;;;;;5044966;28;20048;-67
2024/01/10 06:31:57;;;;;;;60.13;18.25;;;2.30;65.70;;;;;;5046602;28;20047;-65
2024/01/10 06:34:26;;;;;;;64.22;19.20;;;2.40;65.80;;;;;;5032000;28;20137;-68
2024/01/10 06:36:54;;;;;;;63.92;22.23;;;2.40;65.80;;;;;;5046210;28;20056;-65
2024/01/10 06:39:22;;;;;;;63.58;19.90;;;2.40;65.70;;;;;;5045012;28;20150;-67
2024/01/10 06:41:51;;;;;;;65.80;22.17;;;2.40;65.80;;;;;;5046795;28;20064;-65
2024/01/10 06:44:20;;;;;;;61.55;16.08;;;2.40;65.80;;;;;;5033839;28;20628;-65
2024/01/10 06:46:49;;;;;;;67.88;19.67;;;2.40;65.70;;;;;;5047604;28;20118;-64
2024/01/10 06:49:17;;;;;;;98.32;24.92;;;2.40;65.80;;;;;;5036430;28;20052;-66
2024/01/10 06:51:46;;;;;;;69.22;20.67;;;2.40;65.80;;;;;;5043186;28;20048;-65
2024/01/10 06:54:15;;;;;;;57.75;19.48;;;2.40;65.80;;;;;;5032176;28;20052;-64
2024/01/10 06:56:43;;;;;;;83.32;20.02;;;2.40;65.80;;;;;;5049934;28;20056;-66
2024/01/10 06:59:15;;;;;;;74.75;23.17;;;2.40;65.90;;;;;;5044338;28;20063;-65
2024/01/10 07:01:44;;;;;;;64.18;19.27;;;2.50;66.70;;;;;;5040561;28;20048;-65
2024/01/10 07:04:13;;;;;;;66.05;19.00;;;2.50;65.90;;;;;;5039078;28;20151;-66
2024/01/10 07:06:45;;;;;;;77.70;22.52;;;2.50;65.90;;;;;;5043451;28;20052;-66
2024/01/10 07:09:19;;;;;;;54.75;20.05;;;2.50;65.70;;;;;;5045132;28;20052;-66
2024/01/10 07:11:48;;;;;;;55.60;18.05;;;2.60;65.80;;;;;;5050272;28;20131;-66
2024/01/10 07:14:17;;;;;;;54.58;21.27;;;2.60;65.80;;;;;;5035101;28;20048;-66
2024/01/10 07:16:47;;;;;;;60.95;21.45;;;2.60;65.80;;;;;;5052635;28;20056;-65
2024/01/10 07:19:16;;;;;;;69.53;20.48;;;2.60;65.80;;;;;;5047692;28;20395;-66
2024/01/10 07:21:44;;;;;;;69.53;23.25;;;2.60;65.80;;;;;;5049285;28;20079;-65
2024/01/10 07:24:13;;;;;;;64.47;17.40;;;2.60;65.80;;;;;;5041052;28;20056;-65
2024/01/10 07:26:41;;;;;;;53.40;19.65;;;2.60;65.80;;;;;;5050351;28;20075;-65
2024/01/10 07:29:10;;;;;;;65.80;19.98;;;2.60;65.80;;;;;;5057228;28;20406;-66
2024/01/10 07:31:39;;;;;;;72.18;21.70;;;2.60;65.70;;;;;;5050294;28;20232;-65
2024/01/10 07:34:08;;;;;;;85.88;21.38;;;2.60;65.80;;;;;;5036050;28;20052;-65
2024/01/10 07:36:43;;;;;;;64.97;20.73;;;2.60;65.80;;;;;;5046858;28;20048;-65
2024/01/10 07:39:15;;;;;;;71.80;18.67;;;2.60;65.70;;;;;;5045007;28;20052;-66
2024/01/10 07:41:45;;;;;;;64.25;19.45;;;2.60;65.80;;;;;;5045564;28;20057;-66
2024/01/10 07:44:13;;;;;;;85.10;25.67;;;2.60;65.50;;;;;;5044200;28;20060;-69
2024/01/10 07:46:42;;;;;;;63.13;20.23;;;2.60;65.50;;;;;;5054400;28;20121;-65
2024/01/10 07:49:11;;;;;;;150.05;21.58;;;2.50;65.60;;;;;;5043761;28;20061;-65
2024/01/10 07:51:40;;;;;;;76.43;23.02;;;2.50;65.60;;;;;;5051475;28;20052;-65
2024/01/10 07:54:08;;;;;;;79.20;24.15;;;2.50;65.70;;;;;;5051399;28;20053;-66
2024/01/10 07:56:37;;;;;;;64.68;19.10;;;2.60;65.80;;;;;;5053493;28;20049;-65
2024/01/10 07:59:05;;;;;;;57.80;16.00;;;2.50;65.70;;;;;;5052530;28;20088;-66
2024/01/10 08:01:34;;;;;;;85.18;16.65;;;2.50;65.60;;;;;;5059267;28;20064;-65
2024/01/10 08:04:02;;;;;;;81.10;17.70;;;2.50;65.60;;;;;;5057836;28;20155;-67
2024/01/10 08:06:32;;;;;;;40.92;15.55;;;2.50;65.70;;;;;;5043598;28;20044;-66
2024/01/10 08:09:04;;;;;;;79.05;21.85;;;2.40;65.50;;;;;;5053831;28;20120;-65
2024/01/10 08:11:32;;;;;;;65.35;23.33;;;2.40;65.60;;;;;;5050344;28;20793;-65
2024/01/10 08:14:01;;;;;;;59.03;18.52;;;2.40;65.70;;;;;;5051378;28;20497;-65
2024/01/10 08:16:29;;;;;;;71.68;18.98;;;2.40;65.50;;;;;;5048101;28;20044;-65
2024/01/10 08:18:58;;;;;;;52.10;16.58;;;2.30;65.30;;;;;;5049124;28;20061;-67
2024/01/10 08:21:27;;;;;;;76.53;17.85;;;2.30;65.40;;;;;;5043541;28;20135;-66
2024/01/10 08:23:57;;;;;;;66.43;22.00;;;2.30;65.50;;;;;;5050470;28;20111;-67
2024/01/10 08:26:25;;;;;;;57.95;18.25;;;2.30;65.70;;;;;;5036072;28;20068;-66
2024/01/10 08:28:54;;;;;;;48.67;18.90;;;2.40;66.00;;;;;;5047703;28;20156;-65
2024/01/10 08:31:23;;;;;;;68.15;17.67;;;2.40;65.60;;;;;;5052034;28;20107;-65
2024/01/10 08:33:51;;;;;;;79.10;18.27;;;2.40;65.50;;;;;;5046256;28;20162;-64
2024/01/10 08:36:20;;;;;;;59.95;17.55;;;2.40;65.30;;;;;;5043485;28;20399;-65
2024/01/10 08:38:48;;;;;;;80.75;18.10;;;2.40;65.50;;;;;;5047386;28;20083;-65
2024/01/10 08:41:19;;;;;;;64.85;15.75;;;2.40;65.80;;;;;;5047897;28;20057;-65
2024/01/10 08:43:48;;;;;;;75.60;17.95;;;2.40;65.70;;;;;;5045604;28;20080;-66
2024/01/10 08:46:16;;;;;;;31.13;12.98;;;2.40;65.20;;;;;;5035566;28;20055;-66
2024/01/10 08:48:44;;;;;;;67.80;14.35;;;2.40;65.40;;;;;;5051845;28;20068;-66
2024/01/10 08:51:16;;;;;;;49.88;15.70;;;2.30;65.30;;;;;;5048264;28;20048;-66
2024/01/10 08:53:44;;;;;;;69.95;15.68;;;2.40;65.80;;;;;;5046944;28;20048;-64
2024/01/10 08:56:13;;;;;;;54.15;16.88;;;2.60;66.20;;;;;;5041323;28;20048;-67
2024/01/10 08:58:43;;;;;;;61.92;18.15;;;2.70;66.30;;;;;;5044686;28;20146;-65
2024/01/10 09:01:11;;;;;;;79.93;17.15;;;2.80;66.20;;;;;;5041722;28;20048;-65
2024/01/10 09:03:39;;;;;;;53.17;16.02;;;2.90;66.20;;;;;;5050469;28;20112;-65
2024/01/10 09:06:08;;;;;;;51.55;18.95;;;3.00;66.20;;;;;;5047873;28;20068;-66
2024/01/10 09:08:40;;;;;;;57.10;18.92;;;3.00;65.60;;;;;;5050973;28;20106;-65
2024/01/10 09:11:08;;;;;;;75.47;17.83;;;3.10;65.90;;;;;;5036356;28;20507;-65
2024/01/10 09:13:40;;;;;;;55.33;17.50;;;3.20;66.00;;;;;;5042130;28;20565;-65
2024/01/10 09:16:11;;;;;;;54.60;17.52;;;3.30;66.10;;;;;;5047637;28;20060;-65
2024/01/10 09:18:39;;;;;;;80.68;18.50;;;3.50;66.30;;;;;;5049881;28;20051;-66
2024/01/10 09:21:08;;;;;;;50.15;17.13;;;3.70;66.30;;;;;;5052173;28;20052;-65
2024/01/10 09:23:36;;;;;;;54.08;18.25;;;3.80;66.00;;;;;;5049850;28;20125;-65
2024/01/10 09:26:05;;;;;;;91.57;18.88;;;3.80;65.80;;;;;;5047700;28;20426;-65
2024/01/10 09:28:33;;;;;;;58.47;18.15;;;3.90;65.90;;;;;;5048423;28;20084;-65
2024/01/10 09:31:02;;;;;;;55.10;16.30;;;4.10;66.00;;;;;;5052359;28;20048;-65
2024/01/10 09:33:31;;;;;;;73.03;21.73;;;4.20;65.80;;;;;;5049863;28;20066;-64
2024/01/10 09:36:00;;;;;;;44.85;15.68;;;4.10;65.40;;;;;;5050197;28;20114;-65
2024/01/10 09:38:29;;;;;;;52.13;14.43;;;4.20;65.60;;;;;;5041611;28;20095;-65
2024/01/10 09:41:02;;;;;;;61.75;16.17;;;4.30;65.60;;;;;;5049237;28;20141;-65
2024/01/10 09:43:34;;;;;;;71.05;18.65;;;4.40;65.50;;;;;;5052395;28;20109;-65
2024/01/10 09:46:03;;;;;;;102.07;19.75;;;4.50;65.50;;;;;;5055550;28;20068;-65
2024/01/10 09:48:34;;;;;;;48.13;17.85;;;4.50;65.30;;;;;;5041672;28;20044;-65
2024/01/10 09:51:03;;;;;;;37.25;13.98;;;4.70;65.50;;;;;;5051106;28;20080;-65
2024/01/10 09:53:36;;;;;;;39.15;16.15;;;4.80;65.20;;;;;;5050393;28;20813;-65
2024/01/10 09:56:05;;;;;;;74.90;19.67;;;4.70;64.90;;;;;;5047397;28;20110;-65
2024/01/10 09:58:38;;;;;;;60.95;17.00;;;4.70;64.70;;;;;;5037009;28;20130;-64
2024/01/10 10:01:08;;;;;;;55.35;18.17;;;4.80;65.10;;;;;;5041050;28;20044;-65
2024/01/10 10:03:42;;;;;;;53.22;13.82;;;5.10;65.50;;;;;;5053572;28;20512;-65
2024/01/10 10:06:10;;;;;;;58.50;18.25;;;5.60;65.30;;;;;;5053096;28;20155;-64
2024/01/10 10:08:43;;;;;;;77.72;19.00;;;6.10;64.60;;;;;;5045920;28;20118;-65
2024/01/10 10:11:14;;;;;;;64.82;15.98;;;6.50;64.10;;;;;;5051117;28;20048;-64
2024/01/10 10:13:42;;;;;;;76.35;20.60;;;6.80;63.40;;;;;;5039101;28;20568;-64
2024/01/10 10:16:12;;;;;;;69.15;22.20;;;7.30;63.20;;;;;;5051469;28;20063;-64
2024/01/10 10:18:44;;;;;;;92.15;22.98;;;7.80;62.90;;;;;;5043223;28;20091;-64
2024/01/10 10:21:18;;;;;;;89.88;23.30;;;8.40;62.00;;;;;;5045260;28;20071;-64
2024/01/10 10:23:59;;;;;;;88.85;24.17;;;8.70;61.20;;;;;;5054297;28;20174;-64
2024/01/10 10:26:29;;;;;;;80.32;19.20;;;9.10;60.50;;;;;;5043446;28;20064;-64
2024/01/10 10:28:58;;;;;;;91.28;20.13;;;9.50;60.00;;;;;;5047587;28;20517;-63
2024/01/10 10:31:28;;;;;;;84.03;22.85;;;9.80;59.50;;;;;;5050419;28;20080;-64
2024/01/10 10:34:00;;;;;;;102.65;24.42;;;10.10;58.90;;;;;;5047138;28;20060;-65
2024/01/10 10:36:31;;;;;;;96.93;22.13;;;10.40;58.40;;;;;;5039246;28;20068;-64
2024/01/10 10:39:02;;;;;;;90.30;23.15;;;10.60;57.80;;;;;;5047115;28;20056;-62
2024/01/10 10:41:33;;;;;;;71.97;20.42;;;10.70;57.10;;;;;;5047553;28;20518;-64
2024/01/10 10:44:04;;;;;;;95.57;26.63;;;10.70;56.90;;;;;;5044400;28;20382;-65
2024/01/10 10:46:34;;;;;;;99.82;26.55;;;10.60;56.80;;;;;;5046029;28;20055;-64
2024/01/10 10:49:12;;;;;;;82.22;21.77;;;10.50;56.90;;;;;;5050832;28;20057;-65
2024/01/10 10:51:43;;;;;;;91.50;24.77;;;10.40;56.90;;;;;;5048903;28;20084;-64
2024/01/10 10:54:13;;;;;;;76.43;22.13;;;10.20;56.50;;;;;;5040565;28;20071;-64
2024/01/10 10:56:44;;;;;;;77.30;20.42;;;9.90;56.60;;;;;;5041457;28;20114;-65
2024/01/10 10:59:16;;;;;;;109.95;26.55;;;9.70;57.00;;;;;;5047106;28;20052;-63
2024/01/10 11:01:46;;;;;;;88.93;20.80;;;9.50;57.30;;;;;;5037780;28;20143;-63
2024/01/10 11:04:17;;;;;;;82.35;22.50;;;9.30;57.30;;;;;;5042101;28;20503;-65
2024/01/10 11:06:46;;;;;;;69.90;21.83;;;9.00;57.20;;;;;;5043739;28;20059;-63
2024/01/10 11:09:18;;;;;;;70.50;20.55;;;8.60;57.30;;;;;;5045693;28;20128;-64
2024/01/10 11:12:03;;;;;;;105.70;21.77;;;8.30;57.90;;;;;;5048021;28;20092;-65
2024/01/10 11:14:44;;;;;;;81.25;24.80;;;8.00;58.50;;;;;;5036774;28;20052;-64
2024/01/10 11:17:35;;;;;;;81.85;22.92;;;7.80;59.10;;;;;;5046633;28;20139;-65
2024/01/10 11:20:15;;;;;;;94.97;21.15;;;7.60;59.50;;;;;;5044231;28;20067;-64
2024/01/10 11:22:58;;;;;;;78.80;18.30;;;7.30;59.80;;;;;;5043272;28;20140;-65
2024/01/10 11:25:29;;;;;;;67.82;18.52;;;7.10;60.20;;;;;;5052326;28;20068;-65
2024/01/10 11:27:58;;;;;;;70.03;20.13;;;6.80;60.70;;;;;;5041369;28;20075;-65
2024/01/10 11:30:35;;;;;;;66.88;20.63;;;6.50;60.90;;;;;;5050405;28;20159;-65
2024/01/10 11:33:18;;;;;;;59.25;17.73;;;6.20;61.30;;;;;;5053492;28;20524;-64
2024/01/10 11:36:10;;;;;;;56.15;18.45;;;5.90;61.90;;;;;;5046740;28;20139;-66
2024/01/10 11:38:42;;;;;;;71.57;21.90;;;5.60;62.80;;;;;;5038167;28;20057;-64
2024/01/10 11:41:15;;;;;;;68.32;20.88;;;5.50;63.30;;;;;;5052042;28;20057;-65
2024/01/10 11:43:44;;;;;;;55.90;19.42;;;5.40;63.60;;;;;;5046207;28;20402;-65
2024/01/10 11:46:14;;;;;;;89.05;18.83;;;5.30;63.90;;;;;;5046299;28;20056;-64
2024/01/10 11:48:43;;;;;;;43.83;15.38;;;5.20;64.00;;;;;;5043254;28;21206;-64
2024/01/10 11:51:14;;;;;;;71.57;17.48;;;5.20;64.40;;;;;;5048129;28;20149;-64
2024/01/10 11:53:45;;;;;;;69.18;18.38;;;5.20;64.60;;;;;;5039975;28;20053;-66
2024/01/10 11:56:16;;;;;;;68.72;19.15;;;5.20;64.60;;;;;;5044112;28;20044;-64
2024/01/10 11:59:05;;;;;;;74.07;18.95;;;5.20;64.70;;;;;;5005792;28;20068;-64
2024/01/10 12:01:46;;;;;;;62.90;19.20;;;5.10;64.70;;;;;;5040801;28;20045;-67
2024/01/10 12:04:20;;;;;;;78.03;20.45;;;5.10;64.90;;;;;;5041197;28;20763;-66
2024/01/10 12:07:03;;;;;;;43.65;15.38;;;5.10;64.80;;;;;;5043263;28;20064;-65
2024/01/10 12:09:32;;;;;;;48.42;17.13;;;5.10;64.80;;;;;;5035802;28;20147;-63
2024/01/10 12:12:00;;;;;;;51.53;19.85;;;5.10;64.90;;;;;;5037775;28;20076;-63
2024/01/10 12:14:30;;;;;;;89.30;24.05;;;5.10;64.90;;;;;;5041780;28;20055;-61
2024/01/10 12:17:00;;;;;;;72.47;20.33;;;5.10;64.90;;;;;;5046293;28;20076;-63
2024/01/10 12:19:29;;;;;;;73.95;19.05;;;5.10;64.80;;;;;;5048073;28;20620;-61
2024/01/10 12:21:59;;;;;;;67.72;17.77;;;5.10;64.70;;;;;;5047243;28;20053;-60
2024/01/10 12:24:30;;;;;;;61.70;20.63;;;5.10;64.80;;;;;;5032368;28;20052;-61
2024/01/10 12:26:59;;;;;;;88.68;22.58;;;5.10;64.80;;;;;;5042977;28;20059;-60
2024/01/10 12:29:27;;;;;;;95.70;23.85;;;5.10;64.80;;;;;;5042500;28;20057;-62
2024/01/10 12:31:56;;;;;;;71.30;16.88;;;5.10;64.80;;;;;;5044079;28;20064;-62
2024/01/10 12:34:25;;;;;;;88.18;22.55;;;5.10;64.70;;;;;;5035632;28;20061;-63
2024/01/10 12:36:56;;;;;;;64.28;21.80;;;5.20;64.70;;;;;;5050399;28;21529;-62
2024/01/10 12:39:31;;;;;;;76.75;22.33;;;5.20;64.60;;;;;;5045170;28;20067;-62
2024/01/10 12:42:00;;;;;;;82.57;20.42;;;5.20;65.30;;;;;;5042839;28;20185;-61
2024/01/10 12:44:31;;;;;;;86.00;23.00;;;5.20;64.90;;;;;;5039537;28;20049;-63
2024/01/10 12:46:59;;;;;;;75.30;24.73;;;5.30;64.80;;;;;;5047670;28;20052;-62
2024/01/10 12:49:28;;;;;;;67.15;22.65;;;5.30;64.50;;;;;;5055374;28;20140;-63